PWSweather.com
Personal Weather Stations
Station Observations
NIGHT1
EastleighGB

EastleighGB

Lat: 50.966307, Lon: -1.380982

Elevation: 78

Station Type: Davis VP2 with daytime FARS

Latest ConditionsUpdated 2:15:01 PM GMT Thursday, Jan 29, 2015
Currently Today's Max Today's Min Today's Average
Temperature 38.7°F3.7°C 42.8°F6.0°C 35.8°F2.1°C 38.2°F3.4°C
Dew Point 35.4°F1.9°C 38.3°F3.5°C 32.9°F0.5°C 35.0°F1.7°C
Winds 7.0 mph W11.3 kmh W 10.0 mph WSW16.1 kmh WSW - 5.2 mph 8.4 kmh
Wind Gusts 18.0 mph29.0 kmh 20.0 mph32.2 kmh - -
Humidity 88% 92% 83% 88%
Pressure 28.94 in980.0 mb 29.52 in999.7 mb 28.94 in980.0 mb -
Precipitation - 0.06 in1.5 mm - -
Hour Temp Dew Point Humidity Winds Wind Gusts Pressure Precip Precip Rate Daily Precip Total
02:15 PM 38.7°F3.7°C 35.4°F1.9°C 88% 7.0 mph W11.3 kmh W 18.0 mph29.0 kmh 28.94 in980.0 mb 0.00 in0.0 mm 0.00 in/hr0.0 mm/hr 0.06 in1.5 mm
02:10 PM 38.8°F3.8°C 35.6°F2.0°C 88% 7.0 mph W11.3 kmh W 18.0 mph29.0 kmh 28.95 in980.4 mb 0.01 in0.3 mm 0.00 in/hr0.0 mm/hr 0.06 in1.5 mm
02:05 PM 39.2°F4.0°C 36.2°F2.3°C 89% 7.0 mph W11.3 kmh W 13.0 mph20.9 kmh 28.95 in980.4 mb 0.01 in0.3 mm 0.00 in/hr0.0 mm/hr 0.06 in1.5 mm
02:00 PM 38.8°F3.8°C 35.9°F2.2°C 89% 7.0 mph W11.3 kmh W 13.0 mph20.9 kmh 28.95 in980.4 mb 0.01 in0.3 mm 0.00 in/hr0.0 mm/hr 0.06 in1.5 mm
01:55 PM 38.7°F3.7°C 35.7°F2.1°C 89% 8.0 mph W12.9 kmh W 15.0 mph24.1 kmh 28.96 in980.7 mb 0.01 in0.3 mm 0.00 in/hr0.0 mm/hr 0.06 in1.5 mm
01:50 PM 38.7°F3.7°C 35.7°F2.1°C 89% 8.0 mph WSW12.9 kmh WSW 16.0 mph25.7 kmh 28.96 in980.7 mb 0.01 in0.3 mm 0.00 in/hr0.0 mm/hr 0.06 in1.5 mm
01:45 PM 38.8°F3.8°C 36.2°F2.3°C 90% 8.0 mph WSW12.9 kmh WSW 16.0 mph25.7 kmh 28.97 in981.0 mb 0.02 in0.5 mm 0.00 in/hr0.0 mm/hr 0.06 in1.5 mm
01:40 PM 38.8°F3.8°C 36.2°F2.3°C 90% 8.0 mph WSW12.9 kmh WSW 16.0 mph25.7 kmh 28.97 in981.0 mb 0.02 in0.5 mm 0.00 in/hr0.0 mm/hr 0.06 in1.5 mm
01:35 PM 39.0°F3.9°C 36.3°F2.4°C 90% 9.0 mph WSW14.5 kmh WSW 16.0 mph25.7 kmh 28.97 in981.0 mb 0.02 in0.5 mm 0.00 in/hr0.0 mm/hr 0.06 in1.5 mm
01:30 PM 39.2°F4.0°C 36.2°F2.3°C 89% 10.0 mph WSW16.1 kmh WSW 17.0 mph27.4 kmh 28.98 in981.4 mb 0.02 in0.5 mm 0.00 in/hr0.0 mm/hr 0.06 in1.5 mm
01:25 PM 39.4°F4.1°C 36.4°F2.4°C 89% 9.0 mph WSW14.5 kmh WSW 20.0 mph32.2 kmh 28.99 in981.7 mb 0.02 in0.5 mm 0.00 in/hr0.0 mm/hr 0.06 in1.5 mm
01:20 PM 39.4°F4.1°C 36.1°F2.3°C 88% 7.0 mph W11.3 kmh W 20.0 mph32.2 kmh 28.99 in981.7 mb 0.02 in0.5 mm 0.00 in/hr0.0 mm/hr 0.06 in1.5 mm
01:15 PM 39.7°F4.3°C 36.8°F2.7°C 89% 7.0 mph W11.3 kmh W 15.0 mph24.1 kmh 28.99 in981.7 mb 0.02 in0.5 mm 0.00 in/hr0.0 mm/hr 0.06 in1.5 mm
01:10 PM 39.9°F4.4°C 36.9°F2.7°C 89% 6.0 mph WSW9.7 kmh WSW 14.0 mph22.5 kmh 29.00 in982.1 mb 0.02 in0.5 mm 0.00 in/hr0.0 mm/hr 0.05 in1.3 mm
01:05 PM 39.9°F4.4°C 37.2°F2.9°C 90% 7.0 mph WSW11.3 kmh WSW 14.0 mph22.5 kmh 29.01 in982.4 mb 0.02 in0.5 mm 0.00 in/hr0.0 mm/hr 0.05 in1.3 mm
01:00 PM 39.9°F4.4°C 36.9°F2.7°C 89% 8.0 mph WSW12.9 kmh WSW 15.0 mph24.1 kmh 29.01 in982.4 mb 0.02 in0.5 mm 0.00 in/hr0.0 mm/hr 0.05 in1.3 mm
12:55 PM 39.9°F4.4°C 36.7°F2.6°C 88% 7.0 mph WSW11.3 kmh WSW 17.0 mph27.4 kmh 29.02 in982.7 mb 0.02 in0.5 mm 0.00 in/hr0.0 mm/hr 0.05 in1.3 mm
12:50 PM 40.6°F4.8°C 37.1°F2.8°C 87% 5.0 mph WSW8.0 kmh WSW 17.0 mph27.4 kmh 29.02 in982.7 mb 0.02 in0.5 mm 0.24 in/hr6.1 mm/hr 0.05 in1.3 mm
12:45 PM 41.9°F5.5°C 37.7°F3.2°C 85% 4.0 mph W6.4 kmh W 11.0 mph17.7 kmh 29.03 in983.1 mb 0.00 in0.0 mm 0.00 in/hr0.0 mm/hr 0.03 in0.8 mm
12:40 PM 42.3°F5.7°C 37.5°F3.1°C 83% 5.0 mph W8.0 kmh W 11.0 mph17.7 kmh 29.03 in983.1 mb 0.00 in0.0 mm 0.00 in/hr0.0 mm/hr 0.03 in0.8 mm
12:35 PM 42.6°F5.9°C 37.8°F3.2°C 83% 6.0 mph WSW9.7 kmh WSW 12.0 mph19.3 kmh 29.03 in983.1 mb 0.01 in0.3 mm 0.00 in/hr0.0 mm/hr 0.03 in0.8 mm
12:30 PM 42.6°F5.9°C 37.8°F3.2°C 83% 5.0 mph WSW8.0 kmh WSW 12.0 mph19.3 kmh 29.04 in983.4 mb 0.01 in0.3 mm 0.00 in/hr0.0 mm/hr 0.03 in0.8 mm
12:25 PM 42.4°F5.8°C 37.9°F3.3°C 84% 5.0 mph WSW8.0 kmh WSW 13.0 mph20.9 kmh 29.04 in983.4 mb 0.01 in0.3 mm 0.00 in/hr0.0 mm/hr 0.03 in0.8 mm
12:20 PM 42.6°F5.9°C 37.8°F3.2°C 83% 6.0 mph WSW9.7 kmh WSW 13.0 mph20.9 kmh 29.05 in983.7 mb 0.01 in0.3 mm 0.00 in/hr0.0 mm/hr 0.03 in0.8 mm
12:15 PM 42.6°F5.9°C 38.1°F3.4°C 84% 7.0 mph WSW11.3 kmh WSW 12.0 mph19.3 kmh 29.05 in983.7 mb 0.01 in0.3 mm 0.00 in/hr0.0 mm/hr 0.03 in0.8 mm
12:10 PM 42.3°F5.7°C 37.8°F3.2°C 84% 8.0 mph WSW12.9 kmh WSW 16.0 mph25.7 kmh 29.05 in983.7 mb 0.01 in0.3 mm 0.00 in/hr0.0 mm/hr 0.03 in0.8 mm
12:05 PM 42.3°F5.7°C 37.8°F3.2°C 84% 8.0 mph WSW12.9 kmh WSW 17.0 mph27.4 kmh 29.06 in984.1 mb 0.01 in0.3 mm 0.00 in/hr0.0 mm/hr 0.03 in0.8 mm
12:00 PM 42.1°F5.6°C 37.6°F3.1°C 84% 7.0 mph WSW11.3 kmh WSW 17.0 mph27.4 kmh 29.07 in984.4 mb 0.01 in0.3 mm 0.00 in/hr0.0 mm/hr 0.03 in0.8 mm
11:55 AM 42.3°F5.7°C 37.5°F3.1°C 83% 5.0 mph WSW8.0 kmh WSW 17.0 mph27.4 kmh 29.07 in984.4 mb 0.01 in0.3 mm 0.00 in/hr0.0 mm/hr 0.03 in0.8 mm
11:50 AM 42.8°F6.0°C 38.3°F3.5°C 84% 6.0 mph WSW9.7 kmh WSW 11.0 mph17.7 kmh 29.08 in984.8 mb 0.01 in0.3 mm 0.00 in/hr0.0 mm/hr 0.03 in0.8 mm
11:45 AM 42.3°F5.7°C 38.1°F3.4°C 85% 5.0 mph WSW8.0 kmh WSW 14.0 mph22.5 kmh 29.08 in984.8 mb 0.01 in0.3 mm 0.00 in/hr0.0 mm/hr 0.03 in0.8 mm
11:40 AM 41.5°F5.3°C 37.1°F2.8°C 84% 4.0 mph WSW6.4 kmh WSW 14.0 mph22.5 kmh 29.08 in984.8 mb 0.01 in0.3 mm 0.12 in/hr3.0 mm/hr 0.03 in0.8 mm
11:35 AM 41.7°F5.4°C 37.2°F2.9°C 84% 4.0 mph WSW6.4 kmh WSW 10.0 mph16.1 kmh 29.09 in985.1 mb 0.00 in0.0 mm 0.00 in/hr0.0 mm/hr 0.02 in0.5 mm
11:30 AM 41.5°F5.3°C 37.4°F3.0°C 85% 4.0 mph WSW6.4 kmh WSW 8.0 mph12.9 kmh 29.09 in985.1 mb 0.00 in0.0 mm 0.00 in/hr0.0 mm/hr 0.02 in0.5 mm
11:25 AM 41.5°F5.3°C 37.1°F2.8°C 84% 5.0 mph WSW8.0 kmh WSW 9.0 mph14.5 kmh 29.10 in985.4 mb 0.00 in0.0 mm 0.00 in/hr0.0 mm/hr 0.02 in0.5 mm
11:20 AM 41.5°F5.3°C 37.1°F2.8°C 84% 4.0 mph WSW6.4 kmh WSW 10.0 mph16.1 kmh 29.10 in985.4 mb 0.00 in0.0 mm 0.00 in/hr0.0 mm/hr 0.02 in0.5 mm
11:15 AM 41.4°F5.2°C 37.2°F2.9°C 85% 4.0 mph SW6.4 kmh SW 10.0 mph16.1 kmh 29.11 in985.8 mb 0.00 in0.0 mm 0.00 in/hr0.0 mm/hr 0.02 in0.5 mm
11:10 AM 41.4°F5.2°C 37.2°F2.9°C 85% 4.0 mph SW6.4 kmh SW 10.0 mph16.1 kmh 29.11 in985.8 mb 0.00 in0.0 mm 0.00 in/hr0.0 mm/hr 0.02 in0.5 mm
11:05 AM 41.2°F5.1°C 37.3°F2.9°C 86% 4.0 mph SW6.4 kmh SW 10.0 mph16.1 kmh 29.12 in986.1 mb 0.00 in0.0 mm 0.00 in/hr0.0 mm/hr 0.02 in0.5 mm
11:00 AM 41.2°F5.1°C 37.3°F2.9°C 86% 5.0 mph SW8.0 kmh SW 10.0 mph16.1 kmh 29.12 in986.1 mb 0.00 in0.0 mm 0.00 in/hr0.0 mm/hr 0.02 in0.5 mm
10:55 AM 41.0°F5.0°C 37.1°F2.8°C 86% 5.0 mph SW8.0 kmh SW 13.0 mph20.9 kmh 29.12 in986.1 mb 0.00 in0.0 mm 0.00 in/hr0.0 mm/hr 0.02 in0.5 mm
10:50 AM 40.8°F4.9°C 37.0°F2.8°C 86% 5.0 mph SW8.0 kmh SW 13.0 mph20.9 kmh 29.13 in986.5 mb 0.00 in0.0 mm 0.00 in/hr0.0 mm/hr 0.02 in0.5 mm
10:45 AM 40.8°F4.9°C 37.0°F2.8°C 86% 5.0 mph SW8.0 kmh SW 11.0 mph17.7 kmh 29.13 in986.5 mb 0.00 in0.0 mm 0.00 in/hr0.0 mm/hr 0.02 in0.5 mm
10:40 AM 40.6°F4.8°C 36.8°F2.7°C 86% 5.0 mph SW8.0 kmh SW 10.0 mph16.1 kmh 29.13 in986.5 mb 0.00 in0.0 mm 0.00 in/hr0.0 mm/hr 0.02 in0.5 mm
10:35 AM 40.5°F4.7°C 36.6°F2.6°C 86% 5.0 mph SW8.0 kmh SW 12.0 mph19.3 kmh 29.14 in986.8 mb 0.00 in0.0 mm 0.00 in/hr0.0 mm/hr 0.02 in0.5 mm
10:30 AM 40.5°F4.7°C 36.9°F2.7°C 87% 6.0 mph WSW9.7 kmh WSW 12.0 mph19.3 kmh 29.14 in986.8 mb 0.00 in0.0 mm 0.00 in/hr0.0 mm/hr 0.02 in0.5 mm
10:25 AM 40.3°F4.6°C 36.7°F2.6°C 87% 6.0 mph WSW9.7 kmh WSW 13.0 mph20.9 kmh 29.15 in987.1 mb 0.00 in0.0 mm 0.00 in/hr0.0 mm/hr 0.02 in0.5 mm
10:20 AM 40.3°F4.6°C 36.4°F2.4°C 86% 5.0 mph SW8.0 kmh SW 15.0 mph24.1 kmh 29.15 in987.1 mb 0.00 in0.0 mm 0.00 in/hr0.0 mm/hr 0.02 in0.5 mm
10:15 AM 40.5°F4.7°C 36.6°F2.6°C 86% 4.0 mph SW6.4 kmh SW 15.0 mph24.1 kmh 29.15 in987.1 mb 0.00 in0.0 mm 0.00 in/hr0.0 mm/hr 0.02 in0.5 mm
10:10 AM 40.5°F4.7°C 36.9°F2.7°C 87% 4.0 mph SW6.4 kmh SW 11.0 mph17.7 kmh 29.15 in987.1 mb 0.00 in0.0 mm 0.00 in/hr0.0 mm/hr 0.02 in0.5 mm
10:05 AM 40.3°F4.6°C 36.7°F2.6°C 87% 4.0 mph SW6.4 kmh SW 11.0 mph17.7 kmh 29.15 in987.1 mb 0.00 in0.0 mm 0.00 in/hr0.0 mm/hr 0.02 in0.5 mm
10:00 AM 40.1°F4.5°C 36.5°F2.5°C 87% 4.0 mph SW6.4 kmh SW 11.0 mph17.7 kmh 29.16 in987.5 mb 0.00 in0.0 mm 0.00 in/hr0.0 mm/hr 0.02 in0.5 mm
09:55 AM 39.9°F4.4°C 36.7°F2.6°C 88% 4.0 mph SW6.4 kmh SW 10.0 mph16.1 kmh 29.16 in987.5 mb 0.00 in0.0 mm 0.00 in/hr0.0 mm/hr 0.02 in0.5 mm
09:50 AM 39.7°F4.3°C 36.5°F2.5°C 88% 4.0 mph SW6.4 kmh SW 10.0 mph16.1 kmh 29.17 in987.8 mb 0.00 in0.0 mm 0.00 in/hr0.0 mm/hr 0.02 in0.5 mm
09:45 AM 39.7°F4.3°C 36.5°F2.5°C 88% 4.0 mph SW6.4 kmh SW 9.0 mph14.5 kmh 29.17 in987.8 mb 0.00 in0.0 mm 0.00 in/hr0.0 mm/hr 0.02 in0.5 mm
09:40 AM 39.6°F4.2°C 36.3°F2.4°C 88% 4.0 mph SW6.4 kmh SW 10.0 mph16.1 kmh 29.17 in987.8 mb 0.00 in0.0 mm 0.00 in/hr0.0 mm/hr 0.02 in0.5 mm
09:35 AM 39.6°F4.2°C 36.3°F2.4°C 88% 4.0 mph SW6.4 kmh SW 10.0 mph16.1 kmh 29.17 in987.8 mb 0.00 in0.0 mm 0.00 in/hr0.0 mm/hr 0.02 in0.5 mm
09:30 AM 39.7°F4.3°C 36.5°F2.5°C 88% 4.0 mph SW6.4 kmh SW 7.0 mph11.3 kmh 29.18 in988.1 mb 0.00 in0.0 mm 0.00 in/hr0.0 mm/hr 0.02 in0.5 mm
09:25 AM 39.9°F4.4°C 36.9°F2.7°C 89% 3.0 mph SW4.8 kmh SW 12.0 mph19.3 kmh 29.18 in988.1 mb 0.00 in0.0 mm 0.00 in/hr0.0 mm/hr 0.02 in0.5 mm
09:20 AM 39.6°F4.2°C 36.6°F2.6°C 89% 3.0 mph SW4.8 kmh SW 12.0 mph19.3 kmh 29.19 in988.5 mb 0.00 in0.0 mm 0.00 in/hr0.0 mm/hr 0.02 in0.5 mm
09:15 AM 39.4°F4.1°C 36.4°F2.4°C 89% 3.0 mph SW4.8 kmh SW 9.0 mph14.5 kmh 29.19 in988.5 mb 0.00 in0.0 mm 0.00 in/hr0.0 mm/hr 0.02 in0.5 mm
09:10 AM 38.8°F3.8°C 35.9°F2.2°C 89% 2.0 mph SW3.2 kmh SW 9.0 mph14.5 kmh 29.19 in988.5 mb 0.00 in0.0 mm 0.00 in/hr0.0 mm/hr 0.02 in0.5 mm
09:05 AM 38.7°F3.7°C 36.0°F2.2°C 90% 2.0 mph WSW3.2 kmh WSW 9.0 mph14.5 kmh 29.19 in988.5 mb 0.00 in0.0 mm 0.00 in/hr0.0 mm/hr 0.02 in0.5 mm
09:00 AM 38.1°F3.4°C 35.4°F1.9°C 90% 3.0 mph SW4.8 kmh SW 9.0 mph14.5 kmh 29.20 in988.8 mb 0.00 in0.0 mm 0.00 in/hr0.0 mm/hr 0.02 in0.5 mm
08:55 AM 38.1°F3.4°C 35.4°F1.9°C 90% 3.0 mph SW4.8 kmh SW 6.0 mph9.7 kmh 29.20 in988.8 mb 0.00 in0.0 mm 0.00 in/hr0.0 mm/hr 0.02 in0.5 mm
08:50 AM 37.9°F3.3°C 35.3°F1.8°C 90% 3.0 mph SW4.8 kmh SW 8.0 mph12.9 kmh 29.20 in988.8 mb 0.00 in0.0 mm 0.00 in/hr0.0 mm/hr 0.02 in0.5 mm
08:45 AM 37.9°F3.3°C 35.3°F1.8°C 90% 3.0 mph SW4.8 kmh SW 8.0 mph12.9 kmh 29.21 in989.2 mb 0.00 in0.0 mm 0.00 in/hr0.0 mm/hr 0.02 in0.5 mm
08:40 AM 37.8°F3.2°C 35.1°F1.7°C 90% 3.0 mph SW4.8 kmh SW 7.0 mph11.3 kmh 29.22 in989.5 mb 0.00 in0.0 mm 0.00 in/hr0.0 mm/hr 0.02 in0.5 mm
08:35 AM 37.8°F3.2°C 35.4°F1.9°C 91% 3.0 mph SW4.8 kmh SW 9.0 mph14.5 kmh 29.23 in989.8 mb 0.00 in0.0 mm 0.00 in/hr0.0 mm/hr 0.02 in0.5 mm
08:30 AM 37.8°F3.2°C 35.4°F1.9°C 91% 3.0 mph SW4.8 kmh SW 9.0 mph14.5 kmh 29.23 in989.8 mb 0.00 in0.0 mm 0.00 in/hr0.0 mm/hr 0.02 in0.5 mm
08:25 AM 37.8°F3.2°C 35.4°F1.9°C 91% 3.0 mph SW4.8 kmh SW 7.0 mph11.3 kmh 29.23 in989.8 mb 0.00 in0.0 mm 0.00 in/hr0.0 mm/hr 0.02 in0.5 mm
08:20 AM 37.9°F3.3°C 35.5°F1.9°C 91% 4.0 mph SW6.4 kmh SW 7.0 mph11.3 kmh 29.23 in989.8 mb 0.00 in0.0 mm 0.00 in/hr0.0 mm/hr 0.02 in0.5 mm
08:15 AM 37.9°F3.3°C 35.3°F1.8°C 90% 4.0 mph SW6.4 kmh SW 9.0 mph14.5 kmh 29.24 in990.2 mb 0.00 in0.0 mm 0.00 in/hr0.0 mm/hr 0.02 in0.5 mm
08:10 AM 37.9°F3.3°C 35.3°F1.8°C 90% 4.0 mph SW6.4 kmh SW 11.0 mph17.7 kmh 29.24 in990.2 mb 0.00 in0.0 mm 0.00 in/hr0.0 mm/hr 0.02 in0.5 mm
08:05 AM 37.9°F3.3°C 35.3°F1.8°C 90% 4.0 mph SW6.4 kmh SW 11.0 mph17.7 kmh 29.24 in990.2 mb 0.01 in0.3 mm 0.00 in/hr0.0 mm/hr 0.02 in0.5 mm
08:00 AM 37.9°F3.3°C 35.3°F1.8°C 90% 4.0 mph SW6.4 kmh SW 10.0 mph16.1 kmh 29.25 in990.5 mb 0.01 in0.3 mm 0.00 in/hr0.0 mm/hr 0.02 in0.5 mm
07:55 AM 37.8°F3.2°C 35.1°F1.7°C 90% 3.0 mph WSW4.8 kmh WSW 10.0 mph16.1 kmh 29.26 in990.9 mb 0.01 in0.3 mm 0.00 in/hr0.0 mm/hr 0.02 in0.5 mm
07:50 AM 37.6°F3.1°C 34.9°F1.6°C 90% 4.0 mph WSW6.4 kmh WSW 7.0 mph11.3 kmh 29.26 in990.9 mb 0.01 in0.3 mm 0.00 in/hr0.0 mm/hr 0.02 in0.5 mm
07:45 AM 37.6°F3.1°C 34.9°F1.6°C 90% 4.0 mph WSW6.4 kmh WSW 8.0 mph12.9 kmh 29.26 in990.9 mb 0.01 in0.3 mm 0.00 in/hr0.0 mm/hr 0.02 in0.5 mm
07:40 AM 37.6°F3.1°C 34.9°F1.6°C 90% 5.0 mph WSW8.0 kmh WSW 10.0 mph16.1 kmh 29.26 in990.9 mb 0.01 in0.3 mm 0.00 in/hr0.0 mm/hr 0.02 in0.5 mm
07:35 AM 37.6°F3.1°C 34.9°F1.6°C 90% 6.0 mph SW9.7 kmh SW 10.0 mph16.1 kmh 29.26 in990.9 mb 0.01 in0.3 mm 0.00 in/hr0.0 mm/hr 0.02 in0.5 mm
07:30 AM 37.6°F3.1°C 34.9°F1.6°C 90% 5.0 mph WSW8.0 kmh WSW 13.0 mph20.9 kmh 29.27 in991.2 mb 0.01 in0.3 mm 0.00 in/hr0.0 mm/hr 0.02 in0.5 mm
07:25 AM 37.6°F3.1°C 34.9°F1.6°C 90% 4.0 mph WSW6.4 kmh WSW 13.0 mph20.9 kmh 29.27 in991.2 mb 0.01 in0.3 mm 0.00 in/hr0.0 mm/hr 0.02 in0.5 mm
07:20 AM 37.4°F3.0°C 34.7°F1.5°C 90% 4.0 mph SW6.4 kmh SW 10.0 mph16.1 kmh 29.27 in991.2 mb 0.01 in0.3 mm 0.00 in/hr0.0 mm/hr 0.02 in0.5 mm
07:15 AM 37.2°F2.9°C 34.6°F1.4°C 90% 4.0 mph SW6.4 kmh SW 10.0 mph16.1 kmh 29.27 in991.2 mb 0.01 in0.3 mm 0.00 in/hr0.0 mm/hr 0.02 in0.5 mm
07:10 AM 37.2°F2.9°C 34.6°F1.4°C 90% 4.0 mph SW6.4 kmh SW 10.0 mph16.1 kmh 29.27 in991.2 mb 0.01 in0.3 mm 0.12 in/hr3.0 mm/hr 0.02 in0.5 mm
07:05 AM 37.0°F2.8°C 34.4°F1.3°C 90% 4.0 mph WSW6.4 kmh WSW 9.0 mph14.5 kmh 29.28 in991.5 mb 0.00 in0.0 mm 0.00 in/hr0.0 mm/hr 0.02 in0.5 mm
07:00 AM 37.0°F2.8°C 34.4°F1.3°C 90% 5.0 mph WSW8.0 kmh WSW 9.0 mph14.5 kmh 29.28 in991.5 mb 0.00 in0.0 mm 0.00 in/hr0.0 mm/hr 0.02 in0.5 mm
06:55 AM 37.0°F2.8°C 34.4°F1.3°C 90% 5.0 mph WSW8.0 kmh WSW 9.0 mph14.5 kmh 29.29 in991.9 mb 0.00 in0.0 mm 0.00 in/hr0.0 mm/hr 0.02 in0.5 mm
06:50 AM 36.9°F2.7°C 34.2°F1.2°C 90% 5.0 mph WSW8.0 kmh WSW 9.0 mph14.5 kmh 29.29 in991.9 mb 0.00 in0.0 mm 0.00 in/hr0.0 mm/hr 0.02 in0.5 mm
06:45 AM 36.9°F2.7°C 34.2°F1.2°C 90% 5.0 mph WSW8.0 kmh WSW 10.0 mph16.1 kmh 29.29 in991.9 mb 0.00 in0.0 mm 0.00 in/hr0.0 mm/hr 0.02 in0.5 mm
06:40 AM 36.9°F2.7°C 34.2°F1.2°C 90% 6.0 mph WSW9.7 kmh WSW 13.0 mph20.9 kmh 29.30 in992.2 mb 0.00 in0.0 mm 0.00 in/hr0.0 mm/hr 0.02 in0.5 mm
06:35 AM 36.9°F2.7°C 34.2°F1.2°C 90% 6.0 mph WSW9.7 kmh WSW 13.0 mph20.9 kmh 29.30 in992.2 mb 0.00 in0.0 mm 0.00 in/hr0.0 mm/hr 0.02 in0.5 mm
06:30 AM 37.0°F2.8°C 34.4°F1.3°C 90% 6.0 mph WSW9.7 kmh WSW 12.0 mph19.3 kmh 29.30 in992.2 mb 0.00 in0.0 mm 0.00 in/hr0.0 mm/hr 0.02 in0.5 mm
06:25 AM 37.0°F2.8°C 34.4°F1.3°C 90% 6.0 mph WSW9.7 kmh WSW 12.0 mph19.3 kmh 29.31 in992.6 mb 0.00 in0.0 mm 0.00 in/hr0.0 mm/hr 0.02 in0.5 mm
06:20 AM 36.9°F2.7°C 34.2°F1.2°C 90% 5.0 mph WSW8.0 kmh WSW 13.0 mph20.9 kmh 29.31 in992.6 mb 0.00 in0.0 mm 0.00 in/hr0.0 mm/hr 0.02 in0.5 mm
06:15 AM 36.9°F2.7°C 34.2°F1.2°C 90% 4.0 mph WSW6.4 kmh WSW 13.0 mph20.9 kmh 29.32 in992.9 mb 0.00 in0.0 mm 0.00 in/hr0.0 mm/hr 0.02 in0.5 mm
06:10 AM 36.7°F2.6°C 34.0°F1.1°C 90% 4.0 mph WSW6.4 kmh WSW 10.0 mph16.1 kmh 29.32 in992.9 mb 0.00 in0.0 mm 0.00 in/hr0.0 mm/hr 0.02 in0.5 mm
06:05 AM 36.7°F2.6°C 33.7°F0.9°C 89% 4.0 mph WSW6.4 kmh WSW 8.0 mph12.9 kmh 29.32 in992.9 mb 0.00 in0.0 mm 0.00 in/hr0.0 mm/hr 0.02 in0.5 mm
06:00 AM 36.7°F2.6°C 33.7°F0.9°C 89% 4.0 mph WSW6.4 kmh WSW 8.0 mph12.9 kmh 29.33 in993.2 mb 0.00 in0.0 mm 0.00 in/hr0.0 mm/hr 0.02 in0.5 mm
05:55 AM 36.7°F2.6°C 33.7°F0.9°C 89% 5.0 mph WSW8.0 kmh WSW 10.0 mph16.1 kmh 29.33 in993.2 mb 0.00 in0.0 mm 0.00 in/hr0.0 mm/hr 0.02 in0.5 mm
05:50 AM 36.7°F2.6°C 33.7°F0.9°C 89% 5.0 mph WSW8.0 kmh WSW 11.0 mph17.7 kmh 29.33 in993.2 mb 0.00 in0.0 mm 0.00 in/hr0.0 mm/hr 0.02 in0.5 mm
05:45 AM 36.7°F2.6°C 33.7°F0.9°C 89% 5.0 mph WSW8.0 kmh WSW 12.0 mph19.3 kmh 29.33 in993.2 mb 0.00 in0.0 mm 0.00 in/hr0.0 mm/hr 0.02 in0.5 mm
05:40 AM 36.3°F2.4°C 33.4°F0.8°C 89% 4.0 mph WSW6.4 kmh WSW 12.0 mph19.3 kmh 29.33 in993.2 mb 0.00 in0.0 mm 0.00 in/hr0.0 mm/hr 0.02 in0.5 mm
05:35 AM 36.1°F2.3°C 33.2°F0.7°C 89% 4.0 mph WSW6.4 kmh WSW 11.0 mph17.7 kmh 29.34 in993.6 mb 0.00 in0.0 mm 0.00 in/hr0.0 mm/hr 0.02 in0.5 mm
05:30 AM 36.1°F2.3°C 33.2°F0.7°C 89% 4.0 mph WSW6.4 kmh WSW 9.0 mph14.5 kmh 29.34 in993.6 mb 0.00 in0.0 mm 0.00 in/hr0.0 mm/hr 0.02 in0.5 mm
05:25 AM 36.1°F2.3°C 33.2°F0.7°C 89% 4.0 mph WSW6.4 kmh WSW 10.0 mph16.1 kmh 29.34 in993.6 mb 0.00 in0.0 mm 0.00 in/hr0.0 mm/hr 0.02 in0.5 mm
05:20 AM 36.1°F2.3°C 33.2°F0.7°C 89% 4.0 mph WSW6.4 kmh WSW 10.0 mph16.1 kmh 29.35 in993.9 mb 0.00 in0.0 mm 0.00 in/hr0.0 mm/hr 0.02 in0.5 mm
05:15 AM 36.1°F2.3°C 33.2°F0.7°C 89% 4.0 mph WSW6.4 kmh WSW 9.0 mph14.5 kmh 29.35 in993.9 mb 0.00 in0.0 mm 0.00 in/hr0.0 mm/hr 0.02 in0.5 mm
05:10 AM 36.3°F2.4°C 33.4°F0.8°C 89% 5.0 mph WSW8.0 kmh WSW 9.0 mph14.5 kmh 29.35 in993.9 mb 0.00 in0.0 mm 0.00 in/hr0.0 mm/hr 0.02 in0.5 mm
05:05 AM 36.5°F2.5°C 33.6°F0.9°C 89% 5.0 mph WSW8.0 kmh WSW 11.0 mph17.7 kmh 29.35 in993.9 mb 0.00 in0.0 mm 0.00 in/hr0.0 mm/hr 0.02 in0.5 mm
05:00 AM 36.7°F2.6°C 33.7°F0.9°C 89% 5.0 mph WSW8.0 kmh WSW 11.0 mph17.7 kmh 29.35 in993.9 mb 0.00 in0.0 mm 0.00 in/hr0.0 mm/hr 0.02 in0.5 mm
04:55 AM 36.3°F2.4°C 33.4°F0.8°C 89% 5.0 mph SW8.0 kmh SW 12.0 mph19.3 kmh 29.35 in993.9 mb 0.00 in0.0 mm 0.00 in/hr0.0 mm/hr 0.02 in0.5 mm
04:50 AM 36.3°F2.4°C 33.4°F0.8°C 89% 5.0 mph SW8.0 kmh SW 12.0 mph19.3 kmh 29.36 in994.2 mb 0.00 in0.0 mm 0.00 in/hr0.0 mm/hr 0.02 in0.5 mm
04:45 AM 36.3°F2.4°C 33.4°F0.8°C 89% 5.0 mph SW8.0 kmh SW 13.0 mph20.9 kmh 29.36 in994.2 mb 0.00 in0.0 mm 0.00 in/hr0.0 mm/hr 0.02 in0.5 mm
04:40 AM 36.1°F2.3°C 33.2°F0.7°C 89% 4.0 mph SW6.4 kmh SW 13.0 mph20.9 kmh 29.36 in994.2 mb 0.00 in0.0 mm 0.00 in/hr0.0 mm/hr 0.02 in0.5 mm
04:35 AM 36.1°F2.3°C 33.5°F0.8°C 90% 4.0 mph SW6.4 kmh SW 10.0 mph16.1 kmh 29.37 in994.6 mb 0.00 in0.0 mm 0.00 in/hr0.0 mm/hr 0.02 in0.5 mm
04:30 AM 36.1°F2.3°C 33.5°F0.8°C 90% 4.0 mph SW6.4 kmh SW 10.0 mph16.1 kmh 29.37 in994.6 mb 0.00 in0.0 mm 0.00 in/hr0.0 mm/hr 0.02 in0.5 mm
04:25 AM 36.1°F2.3°C 33.5°F0.8°C 90% 4.0 mph SW6.4 kmh SW 10.0 mph16.1 kmh 29.37 in994.6 mb 0.00 in0.0 mm 0.00 in/hr0.0 mm/hr 0.02 in0.5 mm
04:20 AM 36.1°F2.3°C 33.5°F0.8°C 90% 4.0 mph WSW6.4 kmh WSW 11.0 mph17.7 kmh 29.38 in994.9 mb 0.00 in0.0 mm 0.00 in/hr0.0 mm/hr 0.02 in0.5 mm
04:15 AM 36.1°F2.3°C 33.5°F0.8°C 90% 4.0 mph SW6.4 kmh SW 11.0 mph17.7 kmh 29.38 in994.9 mb 0.00 in0.0 mm 0.00 in/hr0.0 mm/hr 0.02 in0.5 mm
04:10 AM 36.3°F2.4°C 33.7°F0.9°C 90% 5.0 mph WSW8.0 kmh WSW 10.0 mph16.1 kmh 29.39 in995.3 mb 0.00 in0.0 mm 0.00 in/hr0.0 mm/hr 0.02 in0.5 mm
04:05 AM 36.5°F2.5°C 33.8°F1.0°C 90% 5.0 mph WSW8.0 kmh WSW 11.0 mph17.7 kmh 29.39 in995.3 mb 0.00 in0.0 mm 0.00 in/hr0.0 mm/hr 0.02 in0.5 mm
04:00 AM 36.5°F2.5°C 33.8°F1.0°C 90% 6.0 mph WSW9.7 kmh WSW 11.0 mph17.7 kmh 29.39 in995.3 mb 0.00 in0.0 mm 0.00 in/hr0.0 mm/hr 0.02 in0.5 mm
03:55 AM 36.5°F2.5°C 33.8°F1.0°C 90% 7.0 mph WSW11.3 kmh WSW 17.0 mph27.4 kmh 29.39 in995.3 mb 0.00 in0.0 mm 0.00 in/hr0.0 mm/hr 0.02 in0.5 mm
03:50 AM 36.5°F2.5°C 33.8°F1.0°C 90% 7.0 mph WSW11.3 kmh WSW 17.0 mph27.4 kmh 29.40 in995.6 mb 0.00 in0.0 mm 0.00 in/hr0.0 mm/hr 0.02 in0.5 mm
03:45 AM 36.3°F2.4°C 33.7°F0.9°C 90% 7.0 mph WSW11.3 kmh WSW 14.0 mph22.5 kmh 29.40 in995.6 mb 0.00 in0.0 mm 0.00 in/hr0.0 mm/hr 0.02 in0.5 mm
03:40 AM 36.3°F2.4°C 33.9°F1.1°C 91% 6.0 mph SW9.7 kmh SW 13.0 mph20.9 kmh 29.41 in995.9 mb 0.00 in0.0 mm 0.00 in/hr0.0 mm/hr 0.02 in0.5 mm
03:35 AM 36.1°F2.3°C 33.8°F1.0°C 91% 5.0 mph SW8.0 kmh SW 13.0 mph20.9 kmh 29.41 in995.9 mb 0.00 in0.0 mm 0.00 in/hr0.0 mm/hr 0.02 in0.5 mm
03:30 AM 36.1°F2.3°C 33.8°F1.0°C 91% 5.0 mph SW8.0 kmh SW 12.0 mph19.3 kmh 29.41 in995.9 mb 0.00 in0.0 mm 0.00 in/hr0.0 mm/hr 0.02 in0.5 mm
03:25 AM 36.0°F2.2°C 33.6°F0.9°C 91% 4.0 mph SW6.4 kmh SW 12.0 mph19.3 kmh 29.41 in995.9 mb 0.00 in0.0 mm 0.00 in/hr0.0 mm/hr 0.02 in0.5 mm
03:20 AM 35.8°F2.1°C 33.7°F0.9°C 92% 4.0 mph SW6.4 kmh SW 10.0 mph16.1 kmh 29.41 in995.9 mb 0.01 in0.3 mm 0.00 in/hr0.0 mm/hr 0.02 in0.5 mm
03:15 AM 35.8°F2.1°C 33.7°F0.9°C 92% 4.0 mph WSW6.4 kmh WSW 12.0 mph19.3 kmh 29.42 in996.3 mb 0.01 in0.3 mm 0.00 in/hr0.0 mm/hr 0.02 in0.5 mm
03:10 AM 36.0°F2.2°C 33.6°F0.9°C 91% 6.0 mph WSW9.7 kmh WSW 12.0 mph19.3 kmh 29.43 in996.6 mb 0.02 in0.5 mm 0.00 in/hr0.0 mm/hr 0.02 in0.5 mm
03:05 AM 36.0°F2.2°C 33.6°F0.9°C 91% 7.0 mph WSW11.3 kmh WSW 11.0 mph17.7 kmh 29.43 in996.6 mb 0.02 in0.5 mm 0.00 in/hr0.0 mm/hr 0.02 in0.5 mm
03:00 AM 36.1°F2.3°C 33.8°F1.0°C 91% 7.0 mph WSW11.3 kmh WSW 13.0 mph20.9 kmh 29.43 in996.6 mb 0.02 in0.5 mm 0.00 in/hr0.0 mm/hr 0.02 in0.5 mm
02:55 AM 36.3°F2.4°C 33.9°F1.1°C 91% 6.0 mph WSW9.7 kmh WSW 13.0 mph20.9 kmh 29.43 in996.6 mb 0.02 in0.5 mm 0.00 in/hr0.0 mm/hr 0.02 in0.5 mm
02:50 AM 36.5°F2.5°C 34.1°F1.2°C 91% 6.0 mph WSW9.7 kmh WSW 16.0 mph25.7 kmh 29.44 in997.0 mb 0.02 in0.5 mm 0.00 in/hr0.0 mm/hr 0.02 in0.5 mm
02:45 AM 36.7°F2.6°C 34.0°F1.1°C 90% 5.0 mph WSW8.0 kmh WSW 16.0 mph25.7 kmh 29.44 in997.0 mb 0.02 in0.5 mm 0.00 in/hr0.0 mm/hr 0.02 in0.5 mm
02:40 AM 36.9°F2.7°C 34.5°F1.4°C 91% 6.0 mph WSW9.7 kmh WSW 13.0 mph20.9 kmh 29.44 in997.0 mb 0.02 in0.5 mm 0.00 in/hr0.0 mm/hr 0.02 in0.5 mm
02:35 AM 36.9°F2.7°C 34.2°F1.2°C 90% 6.0 mph WSW9.7 kmh WSW 12.0 mph19.3 kmh 29.44 in997.0 mb 0.02 in0.5 mm 0.00 in/hr0.0 mm/hr 0.02 in0.5 mm
02:30 AM 37.0°F2.8°C 34.4°F1.3°C 90% 7.0 mph WSW11.3 kmh WSW 13.0 mph20.9 kmh 29.45 in997.3 mb 0.02 in0.5 mm 0.00 in/hr0.0 mm/hr 0.02 in0.5 mm
02:25 AM 37.2°F2.9°C 34.6°F1.4°C 90% 8.0 mph WSW12.9 kmh WSW 16.0 mph25.7 kmh 29.45 in997.3 mb 0.02 in0.5 mm 0.12 in/hr3.0 mm/hr 0.02 in0.5 mm
02:20 AM 37.4°F3.0°C 34.5°F1.4°C 89% 8.0 mph WSW12.9 kmh WSW 19.0 mph30.6 kmh 29.45 in997.3 mb 0.01 in0.3 mm 0.12 in/hr3.0 mm/hr 0.01 in0.3 mm
02:15 AM 37.6°F3.1°C 34.3°F1.3°C 88% 9.0 mph WSW14.5 kmh WSW 19.0 mph30.6 kmh 29.46 in997.6 mb 0.00 in0.0 mm 0.00 in/hr0.0 mm/hr 0.00 in0.0 mm
02:10 AM 37.8°F3.2°C 34.2°F1.2°C 87% 9.0 mph WSW14.5 kmh WSW 19.0 mph30.6 kmh 29.46 in997.6 mb 0.00 in0.0 mm 0.00 in/hr0.0 mm/hr 0.00 in0.0 mm
02:05 AM 37.8°F3.2°C 34.2°F1.2°C 87% 8.0 mph WSW12.9 kmh WSW 19.0 mph30.6 kmh 29.46 in997.6 mb 0.00 in0.0 mm 0.00 in/hr0.0 mm/hr 0.00 in0.0 mm
02:00 AM 37.8°F3.2°C 34.2°F1.2°C 87% 7.0 mph WSW11.3 kmh WSW 17.0 mph27.4 kmh 29.46 in997.6 mb 0.00 in0.0 mm 0.00 in/hr0.0 mm/hr 0.00 in0.0 mm
01:55 AM 37.4°F3.0°C 33.9°F1.1°C 87% 6.0 mph WSW9.7 kmh WSW 16.0 mph25.7 kmh 29.46 in997.6 mb 0.00 in0.0 mm 0.00 in/hr0.0 mm/hr 0.00 in0.0 mm
01:50 AM 37.0°F2.8°C 33.8°F1.0°C 88% 6.0 mph WSW9.7 kmh WSW 13.0 mph20.9 kmh 29.46 in997.6 mb 0.00 in0.0 mm 0.00 in/hr0.0 mm/hr 0.00 in0.0 mm
01:45 AM 37.0°F2.8°C 33.5°F0.8°C 87% 7.0 mph WSW11.3 kmh WSW 14.0 mph22.5 kmh 29.47 in998.0 mb 0.00 in0.0 mm 0.00 in/hr0.0 mm/hr 0.00 in0.0 mm
01:40 AM 37.0°F2.8°C 33.5°F0.8°C 87% 7.0 mph WSW11.3 kmh WSW 17.0 mph27.4 kmh 29.47 in998.0 mb 0.00 in0.0 mm 0.00 in/hr0.0 mm/hr 0.00 in0.0 mm
01:35 AM 37.0°F2.8°C 33.5°F0.8°C 87% 7.0 mph WSW11.3 kmh WSW 17.0 mph27.4 kmh 29.47 in998.0 mb 0.00 in0.0 mm 0.00 in/hr0.0 mm/hr 0.00 in0.0 mm
01:30 AM 37.0°F2.8°C 33.5°F0.8°C 87% 7.0 mph WSW11.3 kmh WSW 14.0 mph22.5 kmh 29.47 in998.0 mb 0.00 in0.0 mm 0.00 in/hr0.0 mm/hr 0.00 in0.0 mm
01:25 AM 37.0°F2.8°C 33.5°F0.8°C 87% 8.0 mph WSW12.9 kmh WSW 15.0 mph24.1 kmh 29.47 in998.0 mb 0.00 in0.0 mm 0.00 in/hr0.0 mm/hr 0.00 in0.0 mm
01:20 AM 37.0°F2.8°C 33.5°F0.8°C 87% 8.0 mph WSW12.9 kmh WSW 16.0 mph25.7 kmh 29.47 in998.0 mb 0.00 in0.0 mm 0.00 in/hr0.0 mm/hr 0.00 in0.0 mm
01:15 AM 37.2°F2.9°C 33.7°F0.9°C 87% 8.0 mph WSW12.9 kmh WSW 17.0 mph27.4 kmh 29.48 in998.3 mb 0.00 in0.0 mm 0.00 in/hr0.0 mm/hr 0.00 in0.0 mm
01:10 AM 37.0°F2.8°C 33.5°F0.8°C 87% 7.0 mph WSW11.3 kmh WSW 17.0 mph27.4 kmh 29.48 in998.3 mb 0.00 in0.0 mm 0.00 in/hr0.0 mm/hr 0.00 in0.0 mm
01:05 AM 36.9°F2.7°C 33.4°F0.8°C 87% 6.0 mph WSW9.7 kmh WSW 15.0 mph24.1 kmh 29.48 in998.3 mb 0.00 in0.0 mm 0.00 in/hr0.0 mm/hr 0.00 in0.0 mm
01:00 AM 36.7°F2.6°C 33.5°F0.8°C 88% 6.0 mph WSW9.7 kmh WSW 15.0 mph24.1 kmh 29.49 in998.6 mb 0.00 in0.0 mm 0.00 in/hr0.0 mm/hr 0.00 in0.0 mm
12:55 AM 36.5°F2.5°C 33.3°F0.7°C 88% 6.0 mph WSW9.7 kmh WSW 16.0 mph25.7 kmh 29.49 in998.6 mb 0.00 in0.0 mm 0.00 in/hr0.0 mm/hr 0.00 in0.0 mm
12:50 AM 36.3°F2.4°C 33.1°F0.6°C 88% 5.0 mph WSW8.0 kmh WSW 16.0 mph25.7 kmh 29.49 in998.6 mb 0.00 in0.0 mm 0.00 in/hr0.0 mm/hr 0.00 in0.0 mm
12:45 AM 36.3°F2.4°C 33.1°F0.6°C 88% 5.0 mph WSW8.0 kmh WSW 12.0 mph19.3 kmh 29.49 in998.6 mb 0.00 in0.0 mm 0.00 in/hr0.0 mm/hr 0.00 in0.0 mm
12:40 AM 36.3°F2.4°C 33.1°F0.6°C 88% 4.0 mph SW6.4 kmh SW 11.0 mph17.7 kmh 29.50 in999.0 mb 0.00 in0.0 mm 0.00 in/hr0.0 mm/hr 0.00 in0.0 mm
12:35 AM 36.1°F2.3°C 32.9°F0.5°C 88% 4.0 mph SW6.4 kmh SW 11.0 mph17.7 kmh 29.50 in999.0 mb 0.00 in0.0 mm 0.00 in/hr0.0 mm/hr 0.00 in0.0 mm
12:30 AM 36.1°F2.3°C 32.9°F0.5°C 88% 4.0 mph SW6.4 kmh SW 12.0 mph19.3 kmh 29.50 in999.0 mb 0.00 in0.0 mm 0.00 in/hr0.0 mm/hr 0.00 in0.0 mm
12:25 AM 36.1°F2.3°C 33.2°F0.7°C 89% 4.0 mph SW6.4 kmh SW 12.0 mph19.3 kmh 29.51 in999.3 mb 0.00 in0.0 mm 0.00 in/hr0.0 mm/hr 0.00 in0.0 mm
12:20 AM 36.1°F2.3°C 33.2°F0.7°C 89% 4.0 mph SW6.4 kmh SW 10.0 mph16.1 kmh 29.51 in999.3 mb 0.00 in0.0 mm 0.00 in/hr0.0 mm/hr 0.00 in0.0 mm
12:15 AM 36.0°F2.2°C 33.0°F0.6°C 89% 4.0 mph SW6.4 kmh SW 9.0 mph14.5 kmh 29.51 in999.3 mb 0.00 in0.0 mm 0.00 in/hr0.0 mm/hr 0.00 in0.0 mm
12:10 AM 36.1°F2.3°C 33.2°F0.7°C 89% 4.0 mph SW6.4 kmh SW 10.0 mph16.1 kmh 29.52 in999.7 mb 0.00 in0.0 mm 0.00 in/hr0.0 mm/hr 0.00 in0.0 mm
12:05 AM 36.1°F2.3°C 33.2°F0.7°C 89% 4.0 mph WSW6.4 kmh WSW 10.0 mph16.1 kmh 29.52 in999.7 mb 0.00 in0.0 mm 0.00 in/hr0.0 mm/hr 0.00 in0.0 mm
12:00 AM 36.1°F2.3°C 33.2°F0.7°C 89% 5.0 mph WSW8.0 kmh WSW 10.0 mph16.1 kmh 29.52 in999.7 mb 0.00 in0.0 mm 0.00 in/hr0.0 mm/hr 0.00 in0.0 mm